• Join FlightAware (Why Join?)
  • Login
  • US Flag 
06:39PM EDT


 

Airport Tracker/Info


-or-


 

Live Flight TrackerFlight Track Log ✈ AWE3828 ✈ 04-May-2013 ✈ KBNA - KCLT

Flight Track Log - Related Links

Times and Time Zones

All times are in EDT time to prevent confusion due to time zone crossing. See the AWE3828 flight status page for this flight to view local times or setup timezone preferences in your user account.

Time Position Orientation Groundspeed Altitude Reporting Facility
EDT Latitude Longitude Course Direction KTS MPH feet Rate Location/Type
10:04AM 36.1167 -86.6833 90° East 155 178 1,300  Level Nashville TRACON
10:05AM 36.0667 -86.6667 165° South 207 238 3,600 2,520 Climbing Nashville TRACON
10:06AM 36.0500 -86.6000 107° East 227 261 6,100 2,520 Climbing Nashville TRACON
10:07AM 36.0737 -86.3028 99° East  Level Estimated
10:07AM 36.0500 -86.5167 90° East 275 316 8,500  Level Nashville TRACON
10:08AM 36.0565 -86.1777 90° East  Level Estimated
10:08AM 36.0511 -86.4522 89° East 271 312 9,900  Level Memphis Center
10:09AM 36.0392 -86.0528 102° East  Level Estimated
10:09AM 36.0564 -86.3517 86° East 289 333 11,700  Level Memphis Center
10:10AM 36.0218 -85.9278 90° East  Level Estimated
10:10AM 36.0611 -86.2464 87° East 306 352 13,800  Level Memphis Center
10:11AM 36.0678 -86.1356 86° East 316 364 15,300 1,380 Climbing Memphis Center
10:12AM 36.0661 -86.0253 91° East 316 364 16,600 1,260 Climbing Memphis Center
10:13AM 36.0600 -85.9075 94° East 332 382 17,900 1,200 Climbing Memphis Center
10:14AM 36.0500 -85.8053 97° East 332 382 19,100 1,020 Climbing Memphis Center
10:16AM 36.0306 -85.5203 95° East 356 410 21,300 1,020 Climbing Atlanta Center
10:17AM 36.0236 -85.3969 94° East 356 410 22,500 1,260 Climbing Atlanta Center
10:18AM 36.0125 -85.2683 96° East 367 422 23,900 1,200 Climbing Atlanta Center
10:19AM 36.0033 -85.1425 95° East 372 428 24,900 540 Climbing Atlanta Center
10:20AM 35.9939 -85.0114 95° East 372 428 25,000  Climbing Atlanta Center
10:21AM 35.9864 -84.8983 95° East 372 428 25,000  Level Atlanta Center
10:22AM 35.9769 -84.7725 95° East 372 428 25,000  Level Atlanta Center
10:23AM 35.9672 -84.6494 96° East 367 422 25,000  Level Atlanta Center
10:24AM 35.9550 -84.5286 97° East 367 422 25,000  Level Atlanta Center
10:25AM 35.9472 -84.4081 95° East 362 417 25,000  Level Atlanta Center
10:26AM 35.9369 -84.2850 96° East 362 417 25,000  Level Atlanta Center
10:27AM 35.9269 -84.1592 96° East 362 417 25,000  Level Atlanta Center
10:28AM 35.9164 -84.0361 96° East 362 417 25,000  Level Atlanta Center
10:29AM 35.9058 -83.9081 96° East 368 423 25,000  Level Atlanta Center
10:30AM 35.9036 -83.7825 91° East 368 423 25,000  Level Atlanta Center
10:31AM 35.9011 -83.6567 91° East 368 423 25,000  Level Atlanta Center
10:32AM 35.8986 -83.5311 91° East 363 418 25,000  Level Atlanta Center
10:33AM 35.8961 -83.4056 91° East 363 418 25,000  Level Atlanta Center
10:34AM 35.8911 -83.2750 93° East 363 418 25,000 -540 Level Atlanta Center
10:35AM 35.8692 -83.1342 101° East 369 425 24,000 -540 Descending Atlanta Center
10:36AM 35.8475 -83.0011 101° East 382 440 24,000  Level Atlanta Center
10:37AM 35.8275 -82.8733 101° East 387 445 24,000  Level Atlanta Center
10:38AM 35.8031 -82.7406 103° East 392 451 24,000 -360 Level Atlanta Center
10:39AM 35.7831 -82.6103 101° East 392 451 23,300 -1,200 Descending Atlanta Center
10:40AM 35.7606 -82.4778 102° East 398 458 21,700 -1,560 Descending Atlanta Center
10:41AM 35.7378 -82.3425 102° East 398 458 20,200 -1,500 Descending Atlanta Center
10:42AM 35.7239 -82.2353 99° East 373 429 18,800 -1,440 Descending Atlanta Center
10:43AM 35.7011 -82.1183 103° East 351 404 17,400 -1,500 Descending Atlanta Center
10:44AM 35.6803 -81.9936 102° East 346 398 15,900 -1,500 Descending Atlanta Center
10:45AM 35.6619 -81.8867 102° East 334 384 14,400 -1,500 Descending Atlanta Center
10:46AM 35.6433 -81.7822 102° East 318 366 12,900 -1,200 Descending Atlanta Center
10:47AM 35.6244 -81.6703 102° East 322 371 12,000 -720 Descending Atlanta Center
10:48AM 35.6178 -81.6450 108° East 338 389 12,000  Level Atlanta Center
10:49AM 35.5825 -81.5517 115° Southeast 329 379 12,000 -660 Level Atlanta Center
10:50AM 35.5264 -81.4667 129° Southeast 312 359 10,800 -1,140 Descending Atlanta Center
10:50AM 35.4833 -81.4017 129° Southeast 312 359 10,000 -480 Descending Atlanta Center
10:51AM 35.4272 -81.3192 130° Southeast 312 359 10,000  Level Atlanta Center
10:52AM 35.4100 -81.2919 128° Southeast 307 353 10,000  Level Atlanta Center
10:52AM 35.3733 -81.2369 129° Southeast 306 352 10,000  Level Atlanta Center
10:53AM 35.3497 -81.2072 134° Southeast 310 357 10,000  Level Atlanta Center
10:53AM 35.3172 -81.1550 127° Southeast 306 352 10,000 -720 Level Atlanta Center
10:55AM 35.2547 -81.0783 135° Southeast 244 281 8,800 -1,320 Descending Atlanta Center
10:55AM 35.1919 -81.0703 174° South 244 281 7,200 -1,620 Descending Atlanta Center
10:57AM 35.1250 -81.0625 175° South 243 280 5,700 -1,500 Descending Atlanta Center
10:58AM 35.0583 -81.0572 176° South 239 275 4,200 -900 Descending Atlanta Center
10:59AM 35.0375 -80.9819 109° East 181 208 3,700 -660 Descending Atlanta Center
11:00AM 35.0575 -80.9408 59° Northeast 176 203 2,900 -1,020 Descending Atlanta Center